createdAt,value
2022-11-28T00:00:33.841Z,38.80
2022-11-28T00:03:25.808Z,39.10
2022-11-28T00:05:56.596Z,36.60
2022-11-28T00:08:27.590Z,33.20
2022-11-28T00:10:58.159Z,35.20
2022-11-28T00:13:29.206Z,33.60
2022-11-28T00:16:00.592Z,34.30
2022-11-28T00:18:31.940Z,37.60
2022-11-28T00:21:03.631Z,36.40
2022-11-28T00:23:34.849Z,36.30
2022-11-28T00:26:06.401Z,31.90
2022-11-28T00:28:37.183Z,33.60
2022-11-28T00:31:08.533Z,34.30
2022-11-28T00:33:39.847Z,33.10
2022-11-28T00:36:11.430Z,36.20
2022-11-28T00:38:42.946Z,36.30
2022-11-28T00:41:14.903Z,37.40
2022-11-28T00:43:49.539Z,38.60
2022-11-28T00:46:21.665Z,34.20
2022-11-28T00:48:53.115Z,32.90
2022-11-28T00:51:24.587Z,32.70
2022-11-28T00:53:56.393Z,33.80
2022-11-28T00:56:27.611Z,34.60
2022-11-28T00:58:58.790Z,35.40
2022-11-28T01:01:38.327Z,37.90
2022-11-28T01:04:10.968Z,36.00
2022-11-28T01:06:43.276Z,34.10
2022-11-28T01:09:16.324Z,31.50
2022-11-28T01:11:49.550Z,31.20
2022-11-28T01:14:21.710Z,27.90
2022-11-28T01:16:53.126Z,31.60
2022-11-28T01:19:24.204Z,29.40
2022-11-28T01:21:54.935Z,30.00
2022-11-28T01:24:25.834Z,32.70
2022-11-28T01:26:56.223Z,31.90
2022-11-28T01:29:27.550Z,30.60
2022-11-28T01:31:58.949Z,29.90
2022-11-28T01:34:29.837Z,29.20
2022-11-28T01:37:02.073Z,27.30
2022-11-28T01:39:33.310Z,31.20
2022-11-28T01:42:03.825Z,31.70
2022-11-28T01:44:51.641Z,30.00
2022-11-28T01:47:23.774Z,29.20
2022-11-28T01:49:55.842Z,27.30
2022-11-28T01:52:26.633Z,27.40
2022-11-28T01:54:59.911Z,28.90
2022-11-28T01:57:31.016Z,27.30
2022-11-28T02:00:05.732Z,29.70
2022-11-28T02:02:45.675Z,30.10
2022-11-28T02:05:17.945Z,27.50
2022-11-28T02:07:48.656Z,28.60
2022-11-28T02:10:20.207Z,26.70
2022-11-28T02:13:01.151Z,27.90
2022-11-28T02:15:41.813Z,26.60
2022-11-28T02:18:23.679Z,26.30
2022-11-28T02:21:03.901Z,28.80
2022-11-28T02:23:43.100Z,27.40
2022-11-28T02:26:24.955Z,31.10
2022-11-28T02:29:12.182Z,26.90
2022-11-28T02:31:56.797Z,26.70
2022-11-28T02:34:29.939Z,26.50
2022-11-28T02:37:04.648Z,29.00
2022-11-28T02:39:39.075Z,26.70
2022-11-28T02:42:13.594Z,28.60
2022-11-28T02:44:46.064Z,27.90
2022-11-28T02:47:19.670Z,28.90
2022-11-28T02:49:52.965Z,28.90
2022-11-28T02:52:25.839Z,28.30
2022-11-28T02:54:56.935Z,27.00
2022-11-28T02:57:30.590Z,29.20
2022-11-28T03:00:01.733Z,32.40
2022-11-28T03:02:33.449Z,28.40
2022-11-28T03:05:07.181Z,28.70
2022-11-28T03:07:47.940Z,31.60
2022-11-28T03:10:24.768Z,27.60
2022-11-28T03:12:59.390Z,26.80
2022-11-28T03:15:33.893Z,26.20
2022-11-28T03:18:12.764Z,30.90
2022-11-28T03:20:46.650Z,29.80
2022-11-28T03:23:18.464Z,29.10
2022-11-28T03:25:56.979Z,27.10
2022-11-28T03:28:32.558Z,27.50
2022-11-28T03:31:04.473Z,27.30
2022-11-28T03:33:37.905Z,27.30
2022-11-28T03:36:10.782Z,28.50
2022-11-28T03:38:43.485Z,27.90
2022-11-28T03:41:16.457Z,29.00
2022-11-28T03:43:50.893Z,26.60
2022-11-28T03:46:23.894Z,28.90
2022-11-28T03:48:56.700Z,25.90
2022-11-28T03:51:30.187Z,26.90
2022-11-28T03:54:03.181Z,27.70
2022-11-28T03:56:37.773Z,27.10
2022-11-28T03:59:10.953Z,27.20
2022-11-28T04:01:46.033Z,27.50
2022-11-28T04:04:19.537Z,24.50
2022-11-28T04:06:54.590Z,24.90
2022-11-28T04:09:32.275Z,24.60
2022-11-28T04:12:06.184Z,23.90
2022-11-28T04:14:39.052Z,25.80
2022-11-28T04:17:12.264Z,26.40
2022-11-28T04:22:14.508Z,26.80
2022-11-28T04:24:48.575Z,24.60
2022-11-28T04:27:22.783Z,23.70
2022-11-28T04:29:55.343Z,25.40
2022-11-28T04:32:27.104Z,26.10
2022-11-28T04:36:06.957Z,26.80
2022-11-28T04:38:39.392Z,24.00
2022-11-28T04:41:12.829Z,25.90
2022-11-28T04:43:47.621Z,27.30
2022-11-28T04:46:20.366Z,25.60
2022-11-28T04:48:51.069Z,26.70
2022-11-28T04:51:24.003Z,25.40
2022-11-28T04:53:58.435Z,25.80
2022-11-28T04:56:30.453Z,27.10
2022-11-28T04:59:01.960Z,24.90
2022-11-28T05:01:33.820Z,23.60
2022-11-28T05:04:04.369Z,25.20
2022-11-28T05:06:36.565Z,23.80
2022-11-28T05:09:07.739Z,22.60
2022-11-28T05:11:39.055Z,27.30
2022-11-28T05:14:09.983Z,25.80
2022-11-28T05:16:40.958Z,27.10
2022-11-28T05:19:11.641Z,24.10
2022-11-28T05:21:42.928Z,23.40
2022-11-28T05:24:13.920Z,23.50
2022-11-28T05:26:44.797Z,23.80
2022-11-28T05:29:15.392Z,24.70
2022-11-28T05:31:46.529Z,23.80
2022-11-28T05:34:17.368Z,23.30
2022-11-28T05:36:48.736Z,21.20
2022-11-28T05:39:19.248Z,22.20
2022-11-28T05:41:50.799Z,25.00
2022-11-28T05:44:26.602Z,23.00
2022-11-28T05:46:58.212Z,23.60
2022-11-28T05:49:29.197Z,24.20
2022-11-28T05:52:00.291Z,23.20
2022-11-28T05:54:32.044Z,21.20
2022-11-28T05:57:03.189Z,22.90
2022-11-28T05:59:33.876Z,21.00
2022-11-28T06:02:04.922Z,21.70
2022-11-28T06:04:35.561Z,22.40
2022-11-28T06:07:06.941Z,23.40
2022-11-28T06:09:37.977Z,21.30
2022-11-28T06:12:09.582Z,21.20
2022-11-28T06:14:40.680Z,20.20
2022-11-28T06:17:11.614Z,21.20
2022-11-28T06:19:42.401Z,22.80
2022-11-28T06:22:13.705Z,21.60
2022-11-28T06:24:44.322Z,21.10
2022-11-28T06:27:15.372Z,18.90
2022-11-28T06:29:45.761Z,18.60
2022-11-28T06:32:21.881Z,18.10
2022-11-28T06:34:52.793Z,19.70
2022-11-28T06:37:23.856Z,22.20
2022-11-28T06:39:54.352Z,25.00
2022-11-28T06:42:25.290Z,22.40
2022-11-28T06:44:55.719Z,20.40
2022-11-28T06:47:26.654Z,21.10
2022-11-28T06:49:57.277Z,19.30
2022-11-28T06:52:28.831Z,19.80
2022-11-28T06:54:59.990Z,21.30
2022-11-28T06:57:32.845Z,21.60
2022-11-28T07:00:03.699Z,23.30
2022-11-28T07:02:34.550Z,22.20
2022-11-28T07:05:06.047Z,21.10
2022-11-28T07:07:52.770Z,20.80
2022-11-28T07:10:25.222Z,21.30
2022-11-28T07:12:56.550Z,19.20
2022-11-28T07:15:27.548Z,21.80
2022-11-28T07:17:58.569Z,23.40
2022-11-28T07:20:29.162Z,21.50
2022-11-28T07:23:01.701Z,20.40
2022-11-28T07:25:32.427Z,20.30
2022-11-28T07:28:03.397Z,17.40
2022-11-28T07:30:34.475Z,17.20
2022-11-28T07:33:05.247Z,19.20
2022-11-28T07:35:35.975Z,18.90
2022-11-28T07:38:08.012Z,17.60
2022-11-28T07:40:39.295Z,16.90
2022-11-28T07:43:10.524Z,17.00
2022-11-28T07:45:59.334Z,17.70
2022-11-28T07:48:31.556Z,17.80
2022-11-28T07:51:05.423Z,18.90
2022-11-28T07:53:37.673Z,18.00
2022-11-28T07:56:10.082Z,16.40
2022-11-28T07:58:40.841Z,16.80
2022-11-28T08:01:12.473Z,17.60
2022-11-28T08:03:44.790Z,16.80
2022-11-28T08:06:17.286Z,18.20
2022-11-28T08:08:48.627Z,17.60
2022-11-28T08:11:20.035Z,16.70
2022-11-28T08:13:51.910Z,16.70
2022-11-28T08:16:25.226Z,17.20
2022-11-28T08:18:56.716Z,17.20
2022-11-28T08:21:28.823Z,16.80
2022-11-28T08:24:00.433Z,17.20
2022-11-28T08:26:32.175Z,18.40
2022-11-28T08:29:03.770Z,18.40
2022-11-28T08:31:34.978Z,17.00
2022-11-28T08:34:07.143Z,19.20
2022-11-28T08:36:38.391Z,18.90
2022-11-28T08:39:22.963Z,18.70
2022-11-28T08:41:57.553Z,18.00
2022-11-28T08:44:30.627Z,19.30
2022-11-28T08:47:01.337Z,18.80
2022-11-28T08:49:32.732Z,19.70
2022-11-28T08:52:03.981Z,18.20
2022-11-28T08:54:35.066Z,18.10
2022-11-28T08:57:05.857Z,18.50
2022-11-28T08:59:37.548Z,18.40
2022-11-28T09:02:08.390Z,19.00
2022-11-28T09:04:39.734Z,16.10
2022-11-28T09:07:10.264Z,16.50
2022-11-28T09:09:41.652Z,17.30
2022-11-28T09:12:12.340Z,19.10
2022-11-28T09:14:43.508Z,17.00
2022-11-28T09:17:16.145Z,16.30
2022-11-28T09:19:47.508Z,15.60
2022-11-28T09:22:18.104Z,16.70
2022-11-28T09:24:48.981Z,16.50
2022-11-28T09:27:19.618Z,15.50
2022-11-28T09:29:50.747Z,16.60
2022-11-28T09:32:21.589Z,13.70
2022-11-28T09:34:55.699Z,15.60
2022-11-28T09:37:26.845Z,15.50
2022-11-28T09:40:12.583Z,16.40
2022-11-28T09:42:45.142Z,18.20
2022-11-28T09:45:17.162Z,16.10
2022-11-28T09:47:49.957Z,15.40
2022-11-28T09:50:23.742Z,14.70
2022-11-28T09:53:00.122Z,15.70
2022-11-28T09:55:35.258Z,16.50
2022-11-28T09:58:07.917Z,16.30
2022-11-28T10:00:40.342Z,16.50
2022-11-28T10:03:26.647Z,16.70
2022-11-28T10:06:03.351Z,16.30
2022-11-28T10:08:39.179Z,16.70
2022-11-28T10:11:16.286Z,17.40
2022-11-28T10:14:07.856Z,17.40
2022-11-28T10:16:45.132Z,15.10
2022-11-28T10:19:46.112Z,15.80
2022-11-28T10:22:11.404Z,16.70
2022-11-28T10:24:44.124Z,15.40
2022-11-28T10:27:15.689Z,15.70
2022-11-28T10:29:48.791Z,15.80
2022-11-28T10:34:51.453Z,14.30
2022-11-28T10:37:25.492Z,13.90
2022-11-28T10:39:57.962Z,13.40
2022-11-28T10:42:32.378Z,14.30
2022-11-28T10:45:07.756Z,13.80
2022-11-28T10:47:55.457Z,14.20
2022-11-28T10:50:33.997Z,12.00
2022-11-28T10:53:08.132Z,14.60
2022-11-28T10:55:44.558Z,13.60
2022-11-28T10:58:18.332Z,14.60
2022-11-28T11:00:50.731Z,13.00
2022-11-28T11:03:23.724Z,11.80
2022-11-28T11:05:54.658Z,12.60
2022-11-28T11:08:26.970Z,12.30
2022-11-28T11:11:01.502Z,12.90
2022-11-28T11:13:33.310Z,12.60
2022-11-28T11:16:05.612Z,13.70
2022-11-28T11:18:37.903Z,11.70
2022-11-28T11:21:15.998Z,10.40
2022-11-28T11:23:47.686Z,12.00
2022-11-28T11:26:24.816Z,11.30
2022-11-28T11:28:56.406Z,12.80
2022-11-28T11:31:28.116Z,12.10
2022-11-28T11:34:05.105Z,12.00
2022-11-28T11:36:39.405Z,11.60
2022-11-28T11:39:18.193Z,11.60
2022-11-28T11:41:49.674Z,12.00
2022-11-28T11:44:29.477Z,13.10
2022-11-28T11:47:03.326Z,11.80
2022-11-28T11:49:36.024Z,13.20
2022-11-28T11:52:14.953Z,11.90
2022-11-28T11:54:56.621Z,11.90
2022-11-28T11:57:35.219Z,12.80
2022-11-28T12:00:08.276Z,12.70
2022-11-28T12:02:47.656Z,13.10
2022-11-28T12:05:19.439Z,13.40
2022-11-28T12:07:54.042Z,12.10
2022-11-28T12:10:26.334Z,12.20
2022-11-28T12:12:57.144Z,13.80
2022-11-28T12:15:32.550Z,12.40
2022-11-28T12:18:15.247Z,12.00
2022-11-28T12:20:54.201Z,12.40
2022-11-28T12:23:34.899Z,12.00
2022-11-28T12:26:09.648Z,14.20
2022-11-28T12:28:49.990Z,14.10
2022-11-28T12:31:28.193Z,12.20
2022-11-28T12:34:05.089Z,13.50
2022-11-28T12:36:39.283Z,12.40
2022-11-28T12:39:19.284Z,11.60
2022-11-28T12:42:06.464Z,12.40
2022-11-28T12:44:41.150Z,13.00
2022-11-28T12:47:15.505Z,11.90
2022-11-28T12:49:52.447Z,12.60
2022-11-28T12:52:27.097Z,13.30
2022-11-28T12:55:09.299Z,11.10
2022-11-28T12:57:44.862Z,10.50
2022-11-28T13:00:16.144Z,11.00
2022-11-28T13:02:52.331Z,10.50
2022-11-28T13:05:37.227Z,11.30
2022-11-28T13:08:17.222Z,10.50
2022-11-28T13:10:51.376Z,9.90
2022-11-28T13:13:26.003Z,15.10
2022-11-28T13:16:00.475Z,10.60
2022-11-28T13:18:40.014Z,10.40
2022-11-28T13:21:19.656Z,10.70
2022-11-28T13:23:53.447Z,10.30
2022-11-28T13:26:32.869Z,3.30
2022-11-28T13:29:07.746Z,9.80
2022-11-28T13:31:41.365Z,9.70
2022-11-28T13:34:14.287Z,10.40
2022-11-28T13:39:43.272Z,11.60
2022-11-28T13:42:58.884Z,9.70
2022-11-28T13:45:25.059Z,10.70
2022-11-28T13:48:00.742Z,9.20
2022-11-28T13:50:36.285Z,9.70
2022-11-28T13:56:27.944Z,10.70
2022-11-28T13:59:01.014Z,8.40
2022-11-28T14:01:44.160Z,8.80
2022-11-28T14:04:16.230Z,8.90
2022-11-28T14:06:49.496Z,10.40
2022-11-28T14:09:30.859Z,8.60
2022-11-28T14:12:11.227Z,8.60
2022-11-28T14:14:53.536Z,9.50
2022-11-28T14:17:31.954Z,8.60
2022-11-28T14:20:11.998Z,11.20
2022-11-28T14:22:50.513Z,9.70
2022-11-28T14:25:25.489Z,9.50
2022-11-28T14:27:57.925Z,10.00
2022-11-28T14:30:32.161Z,8.50
2022-11-28T14:33:05.696Z,9.00
2022-11-28T14:38:27.630Z,9.60
2022-11-28T14:41:03.551Z,9.40
2022-11-28T14:43:35.145Z,8.80
2022-11-28T14:46:26.677Z,9.80
2022-11-28T14:49:23.869Z,9.40
2022-11-28T14:52:37.180Z,9.40
2022-11-28T14:55:01.925Z,9.50
2022-11-28T15:00:16.667Z,10.50
2022-11-28T15:02:53.254Z,9.90
2022-11-28T15:05:40.763Z,9.80
2022-11-28T15:08:32.899Z,9.20
2022-11-28T15:11:11.912Z,10.80
2022-11-28T15:13:52.125Z,10.80
2022-11-28T15:16:24.184Z,10.50
2022-11-28T15:18:57.658Z,9.70
2022-11-28T15:21:28.841Z,10.10
2022-11-28T15:23:59.479Z,10.40
2022-11-28T15:26:31.671Z,10.30
2022-11-28T15:29:14.197Z,9.80
2022-11-28T15:31:49.419Z,9.40
2022-11-28T15:34:24.682Z,9.70
2022-11-28T15:36:56.116Z,10.60
2022-11-28T15:39:28.801Z,10.30
2022-11-28T15:42:01.369Z,10.30
2022-11-28T15:44:32.817Z,10.40
2022-11-28T15:47:03.675Z,9.50
2022-11-28T15:49:35.578Z,9.70
2022-11-28T15:52:06.663Z,10.80
2022-11-28T15:54:41.582Z,11.30
2022-11-28T15:57:20.494Z,10.40
2022-11-28T15:59:54.012Z,10.80
2022-11-28T16:02:30.306Z,11.00
2022-11-28T16:05:22.379Z,10.40
2022-11-28T16:07:53.498Z,12.70
2022-11-28T16:10:25.747Z,11.50
2022-11-28T16:12:59.864Z,12.40
2022-11-28T16:15:31.376Z,11.80
2022-11-28T16:18:02.044Z,12.70
2022-11-28T16:20:35.523Z,11.60
2022-11-28T16:25:35.239Z,10.90
2022-11-28T16:28:06.358Z,10.70
2022-11-28T16:30:38.294Z,11.80
2022-11-28T16:33:22.401Z,11.20
2022-11-28T16:36:12.584Z,11.00
2022-11-28T16:38:43.929Z,10.40
2022-11-28T16:41:18.649Z,11.90
2022-11-28T16:43:51.538Z,10.40
2022-11-28T16:46:23.293Z,11.40
2022-11-28T16:48:57.155Z,11.30
2022-11-28T16:51:38.002Z,12.40
2022-11-28T16:54:28.432Z,10.80
2022-11-28T16:57:09.747Z,10.70
2022-11-28T16:59:40.622Z,9.80
2022-11-28T17:02:15.767Z,10.60
2022-11-28T17:04:47.583Z,10.80
2022-11-28T17:07:20.501Z,12.10
2022-11-28T17:09:51.526Z,12.20
2022-11-28T17:12:25.667Z,12.20
2022-11-28T17:14:56.557Z,11.10
2022-11-28T17:17:28.632Z,11.00
2022-11-28T17:19:59.463Z,11.80
2022-11-28T17:22:40.386Z,12.80
2022-11-28T17:25:16.183Z,13.60
2022-11-28T17:27:48.374Z,12.90
2022-11-28T17:30:20.456Z,14.90
2022-11-28T17:32:52.446Z,14.10
2022-11-28T17:35:24.451Z,15.20
2022-11-28T17:37:55.264Z,15.50
2022-11-28T17:40:36.877Z,15.60
2022-11-28T17:43:10.659Z,13.90
2022-11-28T17:45:42.007Z,14.90
2022-11-28T17:48:16.238Z,15.50
2022-11-28T17:50:48.796Z,15.80
2022-11-28T17:53:20.377Z,16.50
2022-11-28T17:55:58.765Z,16.40
2022-11-28T17:58:29.522Z,15.90
2022-11-28T18:01:01.224Z,16.60
2022-11-28T18:03:32.201Z,15.90
2022-11-28T18:06:02.956Z,17.20
2022-11-28T18:08:34.044Z,16.70
2022-11-28T18:11:05.518Z,17.60
2022-11-28T18:13:36.457Z,18.70
2022-11-28T18:16:08.039Z,17.60
2022-11-28T18:18:39.418Z,17.10
2022-11-28T18:21:11.069Z,17.40
2022-11-28T18:23:43.281Z,19.10
2022-11-28T18:26:16.372Z,17.30
2022-11-28T18:28:47.407Z,18.10
2022-11-28T18:31:19.530Z,20.80
2022-11-28T18:33:51.084Z,19.20
2022-11-28T18:36:22.929Z,19.30
2022-11-28T18:41:42.854Z,19.10
2022-11-28T18:44:13.483Z,19.50
2022-11-28T18:46:44.991Z,18.70
2022-11-28T18:49:16.826Z,20.70
2022-11-28T18:51:48.584Z,20.80
2022-11-28T18:54:21.562Z,22.70
2022-11-28T18:56:53.035Z,19.90
2022-11-28T18:59:24.167Z,20.50
2022-11-28T19:01:55.863Z,21.80
2022-11-28T19:04:26.763Z,20.70
2022-11-28T19:06:59.232Z,22.30
2022-11-28T19:09:30.582Z,21.90
2022-11-28T19:12:01.724Z,24.10
2022-11-28T19:14:32.928Z,21.90
2022-11-28T19:17:04.015Z,22.80
2022-11-28T19:19:35.764Z,22.90
2022-11-28T19:22:10.803Z,22.30
2022-11-28T19:24:42.864Z,23.30
2022-11-28T19:27:14.699Z,26.70
2022-11-28T19:29:46.464Z,25.00
2022-11-28T19:32:18.293Z,25.70
2022-11-28T19:34:52.460Z,27.50
2022-11-28T19:37:22.886Z,27.00
2022-11-28T19:40:01.074Z,26.00
2022-11-28T19:42:33.843Z,25.50
2022-11-28T19:45:05.007Z,25.50
2022-11-28T19:47:36.532Z,25.10
2022-11-28T19:50:12.253Z,25.60
2022-11-28T19:52:45.202Z,25.60
2022-11-28T19:55:15.922Z,29.20
2022-11-28T19:57:47.744Z,27.50
2022-11-28T20:00:19.825Z,27.30
2022-11-28T20:02:51.002Z,23.80
2022-11-28T20:05:22.108Z,23.60
2022-11-28T20:07:58.489Z,24.80
2022-11-28T20:10:30.269Z,24.10
2022-11-28T20:13:01.934Z,25.30
2022-11-28T20:15:35.647Z,27.80
2022-11-28T20:18:07.887Z,26.10
2022-11-28T20:20:39.200Z,24.20
2022-11-28T20:23:10.283Z,24.20
2022-11-28T20:25:41.807Z,23.80
2022-11-28T20:28:12.969Z,25.90
2022-11-28T20:30:44.719Z,26.90
2022-11-28T20:33:15.568Z,29.70
2022-11-28T20:35:46.290Z,26.00
2022-11-28T20:38:17.264Z,25.30
2022-11-28T20:40:48.268Z,25.20
2022-11-28T20:43:19.176Z,26.90
2022-11-28T20:45:50.239Z,28.30
2022-11-28T20:48:21.209Z,25.30
2022-11-28T20:50:51.888Z,29.00
2022-11-28T20:53:26.802Z,27.80
2022-11-28T20:56:01.850Z,28.00
2022-11-28T20:58:32.588Z,28.90
2022-11-28T21:01:03.461Z,26.90
2022-11-28T21:03:39.001Z,26.80
2022-11-28T21:06:10.478Z,24.60
2022-11-28T21:08:41.286Z,24.60
2022-11-28T21:11:25.265Z,28.40
2022-11-28T21:14:06.209Z,25.00
2022-11-28T21:16:37.304Z,26.60
2022-11-28T21:19:09.668Z,26.70
2022-11-28T21:21:40.854Z,26.80
2022-11-28T21:24:12.829Z,25.10
2022-11-28T21:26:48.151Z,25.20
2022-11-28T21:29:22.277Z,23.70
2022-11-28T21:31:53.615Z,25.00
2022-11-28T21:34:24.681Z,27.90
2022-11-28T21:36:56.190Z,27.20
2022-11-28T21:39:27.208Z,28.60
2022-11-28T21:41:58.251Z,27.20
2022-11-28T21:44:28.982Z,26.50
2022-11-28T21:46:59.562Z,26.20
2022-11-28T21:49:40.588Z,26.40
2022-11-28T21:52:11.875Z,24.10
2022-11-28T21:54:42.711Z,24.80
2022-11-28T21:57:13.314Z,26.50
2022-11-28T21:59:44.371Z,25.80
2022-11-28T22:02:15.584Z,25.10
2022-11-28T22:04:46.899Z,25.80
2022-11-28T22:07:17.966Z,24.80
2022-11-28T22:09:49.679Z,25.30
2022-11-28T22:12:20.817Z,22.30
2022-11-28T22:14:57.369Z,25.80
2022-11-28T22:17:32.853Z,26.50
2022-11-28T22:20:03.660Z,29.00
2022-11-28T22:22:34.495Z,29.30
2022-11-28T22:25:06.889Z,25.50
2022-11-28T22:27:38.834Z,23.70
2022-11-28T22:30:10.374Z,24.30
2022-11-28T22:32:41.732Z,25.20
2022-11-28T22:35:13.064Z,27.60
2022-11-28T22:37:44.886Z,27.70
2022-11-28T22:40:16.956Z,28.10
2022-11-28T22:42:47.656Z,28.50
2022-11-28T22:45:18.467Z,27.70
2022-11-28T22:47:49.714Z,26.10
2022-11-28T22:50:20.858Z,25.20
2022-11-28T22:52:51.602Z,25.20
2022-11-28T22:55:22.653Z,23.80
2022-11-28T22:58:27.884Z,28.80
2022-11-28T23:00:59.391Z,26.10
2022-11-28T23:03:30.324Z,25.00
2022-11-28T23:06:04.639Z,24.70
2022-11-28T23:08:35.752Z,25.00
2022-11-28T23:11:08.662Z,25.00
2022-11-28T23:13:40.063Z,23.40
2022-11-28T23:16:15.594Z,25.60
2022-11-28T23:18:47.773Z,25.40
2022-11-28T23:21:19.027Z,26.20
2022-11-28T23:23:49.709Z,25.40
2022-11-28T23:26:21.567Z,29.10
2022-11-28T23:28:52.870Z,27.20
2022-11-28T23:31:24.585Z,26.90
2022-11-28T23:33:55.450Z,27.40
2022-11-28T23:36:27.552Z,25.00
2022-11-28T23:38:59.173Z,25.80
2022-11-28T23:41:30.676Z,27.50
2022-11-28T23:44:01.653Z,28.50
2022-11-28T23:46:33.462Z,28.90
2022-11-28T23:49:05.583Z,26.90
2022-11-28T23:51:37.034Z,26.50
2022-11-28T23:54:08.380Z,27.60
2022-11-28T23:56:40.396Z,27.70
2022-11-28T23:59:11.723Z,24.70
